KEKN/EKN METAR and TAF weather

Enter ICAO airport designator
Station Type Date Time Source
KEKN METAR 2020/11/28 19:51 UTC NOAA

KEKN 281951Z AUTO 26006KT 10SM CLR 09/M04 A3012 RMK AO2 SLP211 T00891039


Station Type Date Time Source
KEKN Decoded METAR 2020/11/28 19:51 UTC NOAA

JENNINGS RANDOLPH FIELD, WV, United States (KEKN) 38-53N 079-51W 603M
Nov 28, 2020 - 02:51 PM EST / 2020.11.28 1951 UTC
Wind: from the W (260 degrees) at 7 MPH (6 KT):0
Visibility: 10 mile(s):0
Sky conditions: clear
Temperature: 48.0 F (8.9 C)
Dew Point: 25.0 F (-3.9 C)
Relative Humidity: 40%
Pressure (altimeter): 30.12 in. Hg (1019 hPa)
ob: KEKN 281951Z AUTO 26006KT 10SM CLR 09/M04 A3012 RMK AO2 SLP211 T00891039
cycle: 20

Station Type Date Time Source
KEKN TAF 2020/11/28 18:24 UTC NOAA

TAF KEKN 281723Z 2818/2918 29007KT P6SM SCT030
FM282300 00000KT P6SM FEW250

Example: see airport list